Time;durP1;ratioP1;P1;durP2;ratioP2;P2;SDS_P1;SDS_P2;PMS_P1;PMS_P2;Temp;Humidity;BMP_temperature;BMP_pressure;BME280_temperature;BME280_humidity;BME280_pressure;Samples;Min_cycle;Max_cycle;Signal;HPM_P1;HPM_P2
2022/10/11 00:00:17;;;;;;;70.53;47.63;;;12.40;99.90;;;;;;6339842;22;20022;-83
2022/10/11 00:02:43;;;;;;;81.57;46.58;;;12.40;99.90;;;;;;6340778;22;20494;-82
2022/10/11 00:05:09;;;;;;;69.45;45.58;;;12.40;99.90;;;;;;6340372;22;19987;-80
2022/10/11 00:07:36;;;;;;;74.85;48.10;;;12.40;99.90;;;;;;6313086;22;20043;-83
2022/10/11 00:10:04;;;;;;;74.43;48.10;;;12.40;99.90;;;;;;6340766;22;20459;-81
2022/10/11 00:12:29;;;;;;;80.40;51.83;;;12.40;99.90;;;;;;6340768;22;20018;-83
2022/10/11 00:14:55;;;;;;;78.45;49.65;;;12.30;99.90;;;;;;6312940;22;20044;-82
2022/10/11 00:17:21;;;;;;;82.28;48.70;;;12.30;99.90;;;;;;6340472;22;20342;-83
2022/10/11 00:19:47;;;;;;;71.05;48.58;;;12.30;99.90;;;;;;6339563;22;20002;-81
2022/10/11 00:22:13;;;;;;;89.53;55.03;;;12.30;99.90;;;;;;6339739;22;20412;-83
2022/10/11 00:24:39;;;;;;;97.63;58.55;;;12.30;99.90;;;;;;6340286;22;20332;-82
2022/10/11 00:27:04;;;;;;;82.15;52.33;;;12.30;99.90;;;;;;6312360;22;20303;-84
2022/10/11 00:29:30;;;;;;;89.13;54.08;;;12.30;99.90;;;;;;6340059;22;19998;-80
2022/10/11 00:31:56;;;;;;;88.15;54.25;;;12.30;99.90;;;;;;6340288;22;20299;-83
2022/10/11 00:34:22;;;;;;;93.20;53.40;;;12.30;99.90;;;;;;6339677;22;20018;-82
2022/10/11 00:36:48;;;;;;;82.30;54.95;;;12.30;99.90;;;;;;6312198;22;20003;-81
2022/10/11 00:39:14;;;;;;;76.45;53.78;;;12.30;99.90;;;;;;6312301;22;20353;-81
2022/10/11 00:41:40;;;;;;;88.05;55.22;;;12.20;99.90;;;;;;6339987;22;20059;-82
2022/10/11 00:44:14;;;;;;;85.45;55.65;;;12.20;99.90;;;;;;6312345;22;19994;-80
2022/10/11 00:46:43;;;;;;;90.57;56.22;;;12.20;99.90;;;;;;6340267;22;20407;-80
2022/10/11 00:49:23;;;;;;;85.75;55.75;;;12.20;99.90;;;;;;6339661;22;19999;-83
2022/10/11 00:51:57;;;;;;;84.70;54.65;;;12.20;99.90;;;;;;6340249;22;20470;-83
2022/10/11 00:54:26;;;;;;;78.75;53.55;;;12.20;99.90;;;;;;6312680;22;20003;-81
2022/10/11 00:56:57;;;;;;;78.97;53.75;;;12.20;99.90;;;;;;6339271;22;19997;-82
2022/10/11 00:59:27;;;;;;;84.38;53.55;;;12.20;99.90;;;;;;6340138;22;20006;-81
2022/10/11 01:01:54;;;;;;;74.65;52.00;;;12.30;99.90;;;;;;6339709;22;19991;-81
2022/10/11 01:04:20;;;;;;;83.78;52.25;;;12.30;99.90;;;;;;6312061;22;20047;-81
2022/10/11 01:06:47;;;;;;;85.53;51.95;;;12.30;99.90;;;;;;6339585;22;19994;-82
2022/10/11 01:09:13;;;;;;;86.80;55.00;;;12.30;99.90;;;;;;6312115;22;20079;-81
2022/10/11 01:11:42;;;;;;;83.85;53.25;;;12.30;99.90;;;;;;6339563;22;20307;-84
2022/10/11 01:14:16;;;;;;;79.50;53.40;;;12.20;99.90;;;;;;6340126;22;20001;-81
2022/10/11 01:16:55;;;;;;;81.03;53.28;;;12.30;99.90;;;;;;6340322;22;19991;-82
2022/10/11 01:19:37;;;;;;;86.30;56.22;;;12.30;99.90;;;;;;6339079;22;20010;-83
2022/10/11 01:22:40;;;;;;;88.15;56.92;;;12.30;99.90;;;;;;6340068;22;19991;-82
2022/10/11 01:25:45;;;;;;;99.82;62.78;;;12.30;99.90;;;;;;6276612;22;20018;-83
2022/10/11 01:28:46;;;;;;;97.93;63.58;;;12.30;99.90;;;;;;6332563;22;20082;-82
2022/10/11 01:31:21;;;;;;;103.05;67.78;;;12.30;99.90;;;;;;6285646;22;20027;-82
2022/10/11 01:33:55;;;;;;;100.18;66.53;;;12.30;99.90;;;;;;6312403;22;20002;-82
2022/10/11 01:36:30;;;;;;;95.20;64.43;;;12.30;99.90;;;;;;6339895;22;19986;-81
2022/10/11 01:39:07;;;;;;;95.72;65.20;;;12.30;99.90;;;;;;6339735;22;19991;-81
2022/10/11 01:41:41;;;;;;;99.18;64.05;;;12.20;99.90;;;;;;6339870;22;20304;-81
2022/10/11 01:44:08;;;;;;;103.43;64.15;;;12.30;99.90;;;;;;6339918;22;20070;-81
2022/10/11 01:46:35;;;;;;;92.65;57.75;;;12.30;99.90;;;;;;6312053;22;19999;-81
2022/10/11 01:49:03;;;;;;;82.03;55.42;;;12.30;99.90;;;;;;6311845;22;20002;-80
2022/10/11 01:51:47;;;;;;;85.55;55.53;;;12.30;99.90;;;;;;6312109;22;20045;-82
2022/10/11 01:54:38;;;;;;;83.95;51.22;;;12.20;99.90;;;;;;6340188;22;20036;-81
2022/10/11 01:57:27;;;;;;;81.05;52.10;;;12.20;99.90;;;;;;6339897;22;20422;-83
2022/10/11 02:00:17;;;;;;;84.32;51.17;;;12.20;99.90;;;;;;6311715;22;20006;-81
2022/10/11 02:03:01;;;;;;;78.22;52.92;;;12.20;99.90;;;;;;6339283;22;20047;-82
2022/10/11 02:05:32;;;;;;;86.72;54.63;;;12.20;99.90;;;;;;6311581;22;20002;-83
2022/10/11 02:08:12;;;;;;;88.47;56.88;;;12.20;99.90;;;;;;6339149;22;19991;-81
2022/10/11 02:10:58;;;;;;;89.43;55.10;;;12.20;99.90;;;;;;6339050;22;20419;-81
2022/10/11 02:13:30;;;;;;;86.20;54.90;;;12.20;99.90;;;;;;6339088;22;20332;-81
2022/10/11 02:15:57;;;;;;;;;;;12.20;99.90;;;;;;6340023;22;19998;-82
2022/10/11 02:18:28;;;;;;;82.10;53.90;;;12.20;99.90;;;;;;6339570;22;19973;-83
2022/10/11 02:20:57;;;;;;;80.93;53.45;;;12.10;99.90;;;;;;6311668;22;20429;-80
2022/10/11 02:23:31;;;;;;;80.78;53.35;;;12.10;99.90;;;;;;6311902;22;20373;-83
2022/10/11 02:25:57;;;;;;;87.68;55.42;;;12.10;99.90;;;;;;6311683;22;19999;-82
2022/10/11 02:28:29;;;;;;;80.85;53.90;;;12.10;99.90;;;;;;6338550;22;19995;-84
2022/10/11 02:30:55;;;;;;;;;;;12.10;99.90;;;;;;6339403;22;19994;-81
2022/10/11 02:33:30;;;;;;;93.43;52.63;;;12.10;99.90;;;;;;6311545;22;19909;-83
2022/10/11 02:36:06;;;;;;;91.85;53.08;;;12.10;99.90;;;;;;6311266;22;19998;-82
2022/10/11 02:38:48;;;;;;;79.03;52.63;;;12.10;99.90;;;;;;6338979;22;19999;-81
2022/10/11 02:41:36;;;;;;;85.28;50.72;;;12.10;99.90;;;;;;6310891;22;20011;-82
2022/10/11 02:44:34;;;;;;;87.55;51.00;;;12.10;99.90;;;;;;6339550;22;20018;-81
2022/10/11 02:47:00;;;;;;;82.15;51.95;;;12.10;99.90;;;;;;6299401;22;20308;-80
2022/10/11 02:49:28;;;;;;;80.50;51.00;;;12.10;99.90;;;;;;6311540;22;19995;-80
2022/10/11 02:51:55;;;;;;;76.78;51.15;;;12.10;99.90;;;;;;6339290;22;20018;-80
2022/10/11 02:54:22;;;;;;;81.20;50.00;;;12.10;99.90;;;;;;6339167;22;20108;-82
2022/10/11 02:56:48;;;;;;;72.32;47.53;;;12.10;99.90;;;;;;6311242;22;19996;-80
2022/10/11 02:59:14;;;;;;;73.97;48.75;;;12.10;99.90;;;;;;6312147;22;20052;-80
2022/10/11 03:01:40;;;;;;;75.13;48.08;;;12.10;99.90;;;;;;6341327;22;20006;-81
2022/10/11 03:04:05;;;;;;;74.85;47.47;;;12.10;99.90;;;;;;6313375;22;19994;-80
2022/10/11 03:06:31;;;;;;;78.13;47.22;;;12.20;99.90;;;;;;6313366;22;20474;-82
2022/10/11 03:08:57;;;;;;;74.60;45.15;;;12.20;99.90;;;;;;6341079;22;19995;-81
2022/10/11 03:11:23;;;;;;;70.47;44.67;;;12.30;99.90;;;;;;6340924;22;20018;-82
2022/10/11 03:13:49;;;;;;;72.93;42.22;;;12.30;99.90;;;;;;6313322;22;20078;-82
2022/10/11 03:16:14;;;;;;;72.22;42.75;;;12.30;99.90;;;;;;6340542;22;19994;-81
2022/10/11 03:18:40;;;;;;;70.10;46.15;;;12.30;99.90;;;;;;6340640;22;20116;-83
2022/10/11 03:21:06;;;;;;;71.78;44.83;;;12.40;99.90;;;;;;6340947;22;20061;-82
2022/10/11 03:23:32;;;;;;;67.70;44.10;;;12.40;99.90;;;;;;6340743;22;19991;-83
2022/10/11 03:25:57;;;;;;;66.95;45.33;;;12.40;99.90;;;;;;6340950;22;20400;-82
2022/10/11 03:28:23;;;;;;;72.07;44.03;;;12.40;99.90;;;;;;6340428;22;19994;-82
2022/10/11 03:30:50;;;;;;;68.47;43.83;;;12.40;99.90;;;;;;6340221;22;20030;-83
2022/10/11 03:33:16;;;;;;;69.20;44.42;;;12.40;99.90;;;;;;6312912;22;19999;-81
2022/10/11 03:35:46;;;;;;;80.22;45.83;;;12.40;99.90;;;;;;6340860;22;20066;-82
2022/10/11 03:38:14;;;;;;;65.55;42.28;;;12.50;99.90;;;;;;6340597;22;20066;-83
2022/10/11 03:40:41;;;;;;;73.75;44.00;;;12.50;99.90;;;;;;6312794;22;20057;-83
2022/10/11 03:43:07;;;;;;;66.68;45.83;;;12.50;99.90;;;;;;6313246;22;19995;-81
2022/10/11 03:45:33;;;;;;;63.72;42.28;;;12.40;99.90;;;;;;6340207;22;20065;-81
2022/10/11 03:47:59;;;;;;;61.00;40.78;;;12.40;99.90;;;;;;6340724;22;20018;-79
2022/10/11 03:50:25;;;;;;;63.72;40.08;;;12.40;99.90;;;;;;6340611;22;20367;-80
2022/10/11 03:52:51;;;;;;;61.42;42.65;;;12.30;99.90;;;;;;6312818;22;19999;-80
2022/10/11 03:55:17;;;;;;;66.22;41.33;;;12.40;99.90;;;;;;6340409;22;20066;-80
2022/10/11 03:57:42;;;;;;;67.65;42.55;;;12.30;99.90;;;;;;6340379;22;19990;-81
2022/10/11 04:00:09;;;;;;;67.38;38.97;;;12.30;99.90;;;;;;6340026;22;20010;-81
2022/10/11 04:02:34;;;;;;;70.70;40.70;;;12.30;99.90;;;;;;6340626;22;20082;-81
2022/10/11 04:05:02;;;;;;;56.38;38.55;;;12.40;99.90;;;;;;6313011;22;20022;-81
2022/10/11 04:07:28;;;;;;;63.60;39.78;;;12.40;99.90;;;;;;6340413;22;19998;-81
2022/10/11 04:09:53;;;;;;;65.63;38.42;;;12.40;99.90;;;;;;6312740;22;20333;-82
2022/10/11 04:12:19;;;;;;;60.67;38.42;;;12.40;99.90;;;;;;6339656;22;19991;-83
2022/10/11 04:14:45;;;;;;;64.97;38.92;;;12.50;99.90;;;;;;6340607;22;20058;-83
2022/10/11 04:17:11;;;;;;;64.63;40.78;;;12.50;99.90;;;;;;6340376;22;19995;-82
2022/10/11 04:19:36;;;;;;;66.32;41.35;;;12.50;99.90;;;;;;6312106;22;20022;-84
2022/10/11 04:22:04;;;;;;;70.38;41.78;;;12.50;99.90;;;;;;6340395;22;19995;-82
2022/10/11 04:24:29;;;;;;;65.70;41.55;;;12.40;99.90;;;;;;6340371;22;19995;-82
2022/10/11 04:26:55;;;;;;;74.45;45.70;;;12.40;99.90;;;;;;6312235;22;20003;-81
2022/10/11 04:29:22;;;;;;;94.57;53.50;;;12.40;99.90;;;;;;6340461;22;20394;-81
2022/10/11 04:31:48;;;;;;;97.07;57.60;;;12.50;99.90;;;;;;6339930;22;20161;-82
2022/10/11 04:34:13;;;;;;;111.65;61.80;;;12.50;99.90;;;;;;6340231;22;20404;-82
2022/10/11 04:36:39;;;;;;;84.57;50.05;;;12.40;99.90;;;;;;6340145;22;19999;-83
2022/10/11 04:39:06;;;;;;;69.25;43.17;;;12.50;99.90;;;;;;6339936;22;20043;-82
2022/10/11 04:41:33;;;;;;;62.08;41.20;;;12.50;99.90;;;;;;6339814;22;20003;-81
2022/10/11 04:44:00;;;;;;;71.80;43.53;;;12.40;99.90;;;;;;6340000;22;19998;-83
2022/10/11 04:46:25;;;;;;;71.82;43.10;;;12.40;99.90;;;;;;6339934;22;19991;-82
2022/10/11 04:48:51;;;;;;;105.47;57.70;;;12.40;99.90;;;;;;6339314;22;19995;-82
2022/10/11 04:51:18;;;;;;;97.07;58.33;;;12.40;99.90;;;;;;6339725;22;20009;-81
2022/10/11 04:53:43;;;;;;;84.03;55.47;;;12.40;99.90;;;;;;6339625;22;19995;-82
2022/10/11 04:56:10;;;;;;;87.25;52.78;;;12.40;99.90;;;;;;6339382;22;20090;-81
2022/10/11 04:58:39;;;;;;;84.20;52.03;;;12.40;99.90;;;;;;6339641;22;19990;-82
2022/10/11 05:01:05;;;;;;;83.82;48.83;;;12.40;99.90;;;;;;6339517;22;20078;-80
2022/10/11 05:03:30;;;;;;;76.03;45.83;;;12.40;99.90;;;;;;6340093;22;20076;-81
2022/10/11 05:05:56;;;;;;;80.80;46.47;;;12.40;99.90;;;;;;6339632;22;20062;-82
2022/10/11 05:08:23;;;;;;;67.03;44.08;;;12.40;99.90;;;;;;6313103;22;20781;-79
2022/10/11 05:11:00;;;;;;;73.40;46.08;;;12.40;99.90;;;;;;6340297;22;19994;-82
2022/10/11 05:13:27;;;;;;;80.97;47.83;;;12.40;99.90;;;;;;6312545;22;19991;-80
2022/10/11 05:15:53;;;;;;;86.82;48.90;;;12.40;99.90;;;;;;6312258;22;20001;-79
2022/10/11 05:18:19;;;;;;;86.70;48.78;;;12.40;99.90;;;;;;6340253;22;20022;-81
2022/10/11 05:20:45;;;;;;;78.35;45.50;;;12.50;99.90;;;;;;6339941;22;19999;-81
2022/10/11 05:23:12;;;;;;;77.38;43.45;;;12.50;99.90;;;;;;6339940;22;20403;-81
2022/10/11 05:25:38;;;;;;;78.97;42.90;;;12.50;99.90;;;;;;6339938;22;20018;-82
2022/10/11 05:28:04;;;;;;;75.10;41.30;;;12.60;99.90;;;;;;6339834;22;19991;-81
2022/10/11 05:30:30;;;;;;;78.65;44.15;;;12.70;99.90;;;;;;6339831;22;20056;-81
2022/10/11 05:32:55;;;;;;;73.50;43.22;;;12.70;99.90;;;;;;6339615;22;20002;-81
2022/10/11 05:35:21;;;;;;;75.35;41.88;;;12.80;99.90;;;;;;6340086;22;20002;-82
2022/10/11 05:37:47;;;;;;;59.58;38.75;;;12.70;99.90;;;;;;6339715;22;20001;-79
2022/10/11 05:40:13;;;;;;;70.13;40.35;;;12.80;99.90;;;;;;6339676;22;20002;-82
2022/10/11 05:42:39;;;;;;;68.63;40.92;;;12.70;99.90;;;;;;6340162;22;20022;-81
2022/10/11 05:45:06;;;;;;;67.28;41.08;;;12.80;99.90;;;;;;6339759;22;19991;-80
2022/10/11 05:47:32;;;;;;;69.93;43.10;;;12.80;99.90;;;;;;6312077;22;19995;-84
2022/10/11 05:49:58;;;;;;;76.18;43.50;;;12.80;99.90;;;;;;6339904;22;19994;-83
2022/10/11 05:52:24;;;;;;;72.60;41.75;;;12.80;99.90;;;;;;6338649;22;20065;-82
2022/10/11 05:54:51;;;;;;;73.57;41.90;;;12.80;99.90;;;;;;6339302;22;19995;-79
2022/10/11 05:57:16;;;;;;;71.18;40.67;;;12.80;99.90;;;;;;6311873;22;20002;-83
2022/10/11 05:59:42;;;;;;;64.30;40.72;;;12.70;99.90;;;;;;6339814;22;19999;-80
2022/10/11 06:02:12;;;;;;;72.35;41.53;;;12.70;99.90;;;;;;6339588;22;20071;-81
2022/10/11 06:04:38;;;;;;;70.13;42.75;;;12.70;99.90;;;;;;6339523;22;20071;-84
2022/10/11 06:07:04;;;;;;;74.80;43.20;;;12.70;99.90;;;;;;6337965;22;20399;-83
2022/10/11 06:09:30;;;;;;;71.18;42.33;;;12.80;99.90;;;;;;6310627;22;20315;-81
2022/10/11 06:11:56;;;;;;;78.53;44.20;;;12.70;99.90;;;;;;6339473;22;19990;-82
2022/10/11 06:14:22;;;;;;;71.97;41.35;;;12.80;99.90;;;;;;6339734;22;20460;-83
2022/10/11 06:16:48;;;;;;;71.57;41.67;;;12.80;99.90;;;;;;6339015;22;19999;-80
2022/10/11 06:19:14;;;;;;;71.63;41.30;;;12.80;99.90;;;;;;6338519;22;20005;-81
2022/10/11 06:21:40;;;;;;;59.60;39.22;;;12.80;99.90;;;;;;6338909;22;20307;-82
2022/10/11 06:24:06;;;;;;;65.88;40.38;;;12.90;99.90;;;;;;6311924;22;20002;-85
2022/10/11 06:26:32;;;;;;;81.75;41.17;;;12.90;99.90;;;;;;6339260;22;20021;-81
2022/10/11 06:28:58;;;;;;;61.25;38.75;;;13.00;99.90;;;;;;6339709;22;19994;-81
2022/10/11 06:31:24;;;;;;;64.32;40.13;;;13.00;99.90;;;;;;6311780;22;19994;-82
2022/10/11 06:33:50;;;;;;;68.53;41.00;;;13.00;99.90;;;;;;6311501;22;20075;-82
2022/10/11 06:36:16;;;;;;;60.85;37.70;;;13.10;99.90;;;;;;6311383;22;20086;-82
2022/10/11 06:38:43;;;;;;;68.10;40.30;;;13.20;99.90;;;;;;6338844;22;20070;-81
2022/10/11 06:41:23;;;;;;;73.72;41.50;;;13.20;99.90;;;;;;6338371;22;20022;-82
2022/10/11 06:43:50;;;;;;;75.50;43.28;;;13.20;99.90;;;;;;6339545;22;19999;-82
2022/10/11 06:46:17;;;;;;;58.60;36.83;;;13.30;99.90;;;;;;6339401;22;19987;-82
2022/10/11 06:48:44;;;;;;;62.38;37.90;;;13.30;99.90;;;;;;6338843;22;20001;-82
2022/10/11 06:51:16;;;;;;;65.75;37.55;;;13.40;99.90;;;;;;6338905;22;20002;-82
2022/10/11 06:53:43;;;;;;;66.22;38.63;;;13.50;99.90;;;;;;6339343;22;20296;-82
2022/10/11 06:56:11;;;;;;;65.28;35.40;;;13.50;99.90;;;;;;6338991;22;19998;-82
2022/10/11 06:58:38;;;;;;;57.63;36.67;;;13.60;99.90;;;;;;6338722;22;19998;-83
2022/10/11 07:01:08;;;;;;;56.60;36.55;;;13.60;99.90;;;;;;6338706;22;20052;-82
2022/10/11 07:03:34;;;;;;;61.22;34.55;;;13.60;99.90;;;;;;6311574;22;20027;-83
2022/10/11 07:06:05;;;;;;;60.03;37.13;;;13.70;99.90;;;;;;6339055;22;19987;-83
2022/10/11 07:08:31;;;;;;;67.68;36.65;;;13.80;99.90;;;;;;6339230;22;20023;-81
2022/10/11 07:11:13;;;;;;;57.13;36.33;;;13.80;99.90;;;;;;6311643;22;20021;-82
2022/10/11 07:13:40;;;;;;;54.97;33.80;;;13.80;99.90;;;;;;6339171;22;20052;-83
2022/10/11 07:16:09;;;;;;;56.92;34.03;;;13.90;99.90;;;;;;6338859;22;19998;-82
2022/10/11 07:18:35;;;;;;;53.05;32.38;;;13.90;99.90;;;;;;6311041;22;19995;-81
2022/10/11 07:21:06;;;;;;;62.67;35.70;;;14.00;99.90;;;;;;6310028;22;19995;-83
2022/10/11 07:23:32;;;;;;;60.47;38.00;;;14.10;99.90;;;;;;6339086;22;19999;-82
2022/10/11 07:25:58;;;;;;;52.60;33.67;;;14.10;99.90;;;;;;6311507;22;20022;-84
2022/10/11 07:28:24;;;;;;;69.80;35.25;;;14.10;99.90;;;;;;6310949;22;20048;-82
2022/10/11 07:30:50;;;;;;;61.92;36.08;;;14.20;99.90;;;;;;6339231;22;20005;-80
2022/10/11 07:33:16;;;;;;;56.85;35.45;;;14.20;99.90;;;;;;6311609;22;20341;-82
2022/10/11 07:35:42;;;;;;;66.90;35.88;;;14.30;99.90;;;;;;6311232;22;20476;-83
2022/10/11 07:38:07;;;;;;;56.83;33.92;;;14.30;99.90;;;;;;6339380;22;19995;-81
2022/10/11 07:40:43;;;;;;;58.70;34.83;;;14.40;99.90;;;;;;6338902;22;20019;-82
2022/10/11 07:43:10;;;;;;;60.08;36.13;;;14.40;99.90;;;;;;6311781;22;20002;-82
2022/10/11 07:45:37;;;;;;;54.85;35.63;;;14.50;99.90;;;;;;6339173;22;19994;-84
2022/10/11 07:48:04;;;;;;;55.50;35.17;;;14.60;99.90;;;;;;6340513;22;19991;-82
2022/10/11 07:50:29;;;;;;;53.88;36.35;;;14.60;99.90;;;;;;6340418;22;20003;-81
2022/10/11 07:52:55;;;;;;;54.95;36.85;;;14.60;99.90;;;;;;6312908;22;20284;-82
2022/10/11 07:55:21;;;;;;;58.00;38.20;;;14.60;99.90;;;;;;6340440;22;19991;-81
2022/10/11 07:57:47;;;;;;;68.35;41.15;;;14.60;99.90;;;;;;6340728;22;19998;-85
2022/10/11 08:00:13;;;;;;;61.95;37.35;;;14.60;99.90;;;;;;6313162;22;19999;-82
2022/10/11 08:02:39;;;;;;;97.32;49.03;;;14.60;99.90;;;;;;6340818;22;20078;-80
2022/10/11 08:05:05;;;;;;;69.28;39.30;;;14.70;99.90;;;;;;6340518;22;20303;-82
2022/10/11 08:07:30;;;;;;;71.32;40.90;;;14.60;99.90;;;;;;6340442;22;20062;-80
2022/10/11 08:09:56;;;;;;;74.82;45.05;;;14.60;99.90;;;;;;6340392;22;20001;-82
2022/10/11 08:12:22;;;;;;;116.63;57.45;;;14.60;99.90;;;;;;6312294;22;19994;-81
2022/10/11 08:14:48;;;;;;;85.78;47.97;;;14.70;99.90;;;;;;6340577;22;20292;-80
2022/10/11 08:17:14;;;;;;;79.45;48.53;;;14.70;99.90;;;;;;6340440;22;20036;-82
2022/10/11 08:19:40;;;;;;;74.70;49.40;;;14.70;99.90;;;;;;6340592;22;20006;-82
2022/10/11 08:22:06;;;;;;;85.95;51.85;;;14.70;99.90;;;;;;6312957;22;20311;-82
2022/10/11 08:24:32;;;;;;;76.45;50.83;;;14.70;99.90;;;;;;6339872;22;19990;-78
2022/10/11 08:26:58;;;;;;;96.13;58.30;;;14.70;99.90;;;;;;6312287;22;20345;-82
2022/10/11 08:29:23;;;;;;;85.45;56.92;;;14.70;99.90;;;;;;6340262;22;19995;-82
2022/10/11 08:31:49;;;;;;;89.35;55.53;;;14.80;99.90;;;;;;6340162;22;20039;-82
2022/10/11 08:34:15;;;;;;;80.88;51.78;;;14.80;99.90;;;;;;6340449;22;20295;-83
2022/10/11 08:36:41;;;;;;;87.50;56.80;;;14.80;99.90;;;;;;6340429;22;20328;-81
2022/10/11 08:39:07;;;;;;;95.47;60.20;;;14.80;99.90;;;;;;6340209;22;19995;-81
2022/10/11 08:41:50;;;;;;;90.65;58.17;;;14.80;99.90;;;;;;6340364;22;20427;-83
2022/10/11 08:44:31;;;;;;;94.88;58.00;;;14.80;99.90;;;;;;6339975;22;19994;-82
2022/10/11 08:47:32;;;;;;;88.85;60.53;;;14.90;99.90;;;;;;6312523;22;19995;-82
2022/10/11 08:49:59;;;;;;;85.15;55.45;;;15.00;99.90;;;;;;6340330;22;20044;-81
2022/10/11 08:52:37;;;;;;;89.38;56.45;;;15.00;99.90;;;;;;6340104;22;20039;-82
2022/10/11 08:55:16;;;;;;;82.15;54.63;;;15.10;99.90;;;;;;6340133;22;20415;-81
2022/10/11 08:57:44;;;;;;;95.13;59.30;;;15.10;99.90;;;;;;6340238;22;20033;-81
2022/10/11 09:00:16;;;;;;;101.43;63.72;;;15.20;99.90;;;;;;6339588;22;20006;-84
2022/10/11 09:03:01;;;;;;;91.55;58.95;;;15.20;99.90;;;;;;6311316;22;19995;-82
2022/10/11 09:05:52;;;;;;;98.63;62.58;;;15.20;99.90;;;;;;6339654;22;19995;-83
2022/10/11 09:08:35;;;;;;;98.97;58.87;;;15.30;99.90;;;;;;6339357;22;19998;-80
2022/10/11 09:11:13;;;;;;;91.65;57.35;;;15.40;99.90;;;;;;6339821;22;19990;-82
2022/10/11 09:13:51;;;;;;;96.75;59.88;;;15.30;99.90;;;;;;6312464;22;20049;-82
2022/10/11 09:16:54;;;;;;;104.65;61.05;;;15.40;99.90;;;;;;6312502;22;20001;-80
2022/10/11 09:19:31;;;;;;;119.00;67.15;;;15.40;99.90;;;;;;6339613;22;20053;-83
2022/10/11 09:22:00;;;;;;;107.45;62.08;;;15.40;99.90;;;;;;6339508;22;20002;-83
2022/10/11 09:25:01;;;;;;;113.15;62.70;;;15.40;99.90;;;;;;6339668;22;20009;-80
2022/10/11 09:27:43;;;;;;;133.63;76.70;;;15.40;99.90;;;;;;6303919;22;20302;-83
2022/10/11 09:30:15;;;;;;;120.95;70.28;;;15.50;99.90;;;;;;6339792;22;20102;-81
2022/10/11 09:32:46;;;;;;;112.95;62.78;;;15.50;99.90;;;;;;6339484;22;19998;-81
2022/10/11 09:35:16;;;;;;;101.82;60.20;;;15.50;99.90;;;;;;6339793;22;20032;-84
2022/10/11 09:37:56;;;;;;;114.65;66.32;;;15.50;99.90;;;;;;6339710;22;20070;-83
2022/10/11 09:40:52;;;;;;;99.32;58.03;;;15.50;99.90;;;;;;6339737;22;20003;-82
2022/10/11 09:43:17;;;;;;;109.03;64.85;;;15.50;99.90;;;;;;6339439;22;20070;-81
2022/10/11 09:45:45;;;;;;;114.47;69.55;;;15.60;99.90;;;;;;6339842;22;20018;-82
2022/10/11 09:48:18;;;;;;;109.13;66.78;;;15.60;99.90;;;;;;6339727;22;20014;-80
2022/10/11 09:50:45;;;;;;;101.95;61.08;;;15.80;99.90;;;;;;6339053;22;20430;-82
2022/10/11 09:53:11;;;;;;;100.97;61.42;;;15.90;99.90;;;;;;6339501;22;20017;-81
2022/10/11 09:55:46;;;;;;;97.70;56.25;;;15.90;99.90;;;;;;6339353;22;19995;-83
2022/10/11 09:58:26;;;;;;;96.65;60.28;;;16.00;99.90;;;;;;6339563;22;20299;-83
2022/10/11 10:01:07;;;;;;;98.82;60.50;;;16.20;99.90;;;;;;6312157;22;20064;-84
2022/10/11 10:03:35;;;;;;;98.90;54.70;;;16.30;99.90;;;;;;6339723;22;19995;-81
2022/10/11 10:06:07;;;;;;;86.72;54.55;;;16.30;99.90;;;;;;6339009;22;19991;-80
2022/10/11 10:08:34;;;;;;;95.15;55.08;;;16.30;99.90;;;;;;6339380;22;20063;-82
2022/10/11 10:11:04;;;;;;;86.55;55.88;;;16.40;99.90;;;;;;6339552;22;19995;-81
2022/10/11 10:13:39;;;;;;;91.38;54.45;;;16.40;99.90;;;;;;6339809;22;20065;-83
2022/10/11 10:16:10;;;;;;;88.13;54.85;;;16.50;99.90;;;;;;6311600;22;20006;-83
2022/10/11 10:18:49;;;;;;;84.32;51.33;;;16.50;99.90;;;;;;6339980;22;20026;-82
2022/10/11 10:21:29;;;;;;;97.65;55.28;;;16.50;99.90;;;;;;6339411;22;20079;-86
2022/10/11 10:23:56;;;;;;;81.18;50.28;;;16.50;99.90;;;;;;6311980;22;20006;-82
2022/10/11 10:26:25;;;;;;;86.22;51.85;;;16.60;99.90;;;;;;6311985;22;20077;-82
2022/10/11 10:29:15;;;;;;;87.30;52.97;;;16.70;99.90;;;;;;6311436;22;19999;-81
2022/10/11 10:31:47;;;;;;;82.32;52.95;;;16.70;99.90;;;;;;6339046;22;20023;-80
2022/10/11 10:34:45;;;;;;;80.60;53.42;;;16.60;99.90;;;;;;6339196;22;20307;-84
2022/10/11 10:37:56;;;;;;;76.05;48.53;;;16.70;99.90;;;;;;6183379;23;20035;-81
2022/10/11 10:40:30;;;;;;;97.68;48.83;;;16.80;99.90;;;;;;6173739;23;20021;-82
2022/10/11 10:42:56;;;;;;;71.97;45.67;;;16.80;99.90;;;;;;6213485;23;20001;-81
2022/10/11 10:45:32;;;;;;;84.55;50.15;;;16.90;99.90;;;;;;6213347;23;20001;-82
2022/10/11 10:48:09;;;;;;;119.25;64.13;;;17.00;99.90;;;;;;6213366;23;20435;-82
2022/10/11 10:50:53;;;;;;;116.40;71.45;;;17.20;99.90;;;;;;6213520;23;20000;-79
2022/10/11 10:53:41;;;;;;;80.43;50.33;;;17.30;99.90;;;;;;6213331;23;20004;-80
2022/10/11 10:56:17;;;;;;;79.10;50.08;;;17.40;99.90;;;;;;6212775;23;20005;-80
2022/10/11 10:59:13;;;;;;;81.47;50.65;;;17.50;99.90;;;;;;6187265;23;19997;-81
2022/10/11 11:02:00;;;;;;;76.32;49.17;;;17.60;99.90;;;;;;6213258;23;20013;-81
2022/10/11 11:04:34;;;;;;;73.97;47.50;;;17.70;99.90;;;;;;6212838;23;20038;-84
2022/10/11 11:07:29;;;;;;;82.15;47.05;;;17.80;99.90;;;;;;6212736;23;20050;-81
2022/10/11 11:10:05;;;;;;;75.25;47.22;;;17.80;99.90;;;;;;6204664;23;20422;-80
2022/10/11 11:12:43;;;;;;;77.55;49.83;;;17.80;99.90;;;;;;6211269;23;20000;-80
2022/10/11 11:15:19;;;;;;;82.57;47.85;;;17.80;99.90;;;;;;6337320;22;20002;-81
2022/10/11 11:17:48;;;;;;;64.10;43.38;;;17.90;99.90;;;;;;6310935;22;20001;-80
2022/10/11 11:20:19;;;;;;;64.53;43.05;;;17.90;99.90;;;;;;6339281;22;20022;-82
2022/10/11 11:23:04;;;;;;;67.60;42.30;;;17.90;99.90;;;;;;6340842;22;19999;-82
2022/10/11 11:25:39;;;;;;;75.10;43.42;;;18.00;99.90;;;;;;6340586;22;20075;-81
2022/10/11 11:28:31;;;;;;;62.67;41.30;;;18.10;99.90;;;;;;6340844;22;20068;-83
2022/10/11 11:31:28;;;;;;;67.35;44.72;;;18.10;99.90;;;;;;6311823;22;20030;-79
2022/10/11 11:33:56;;;;;;;71.00;45.47;;;18.20;99.90;;;;;;6340082;22;19987;-80
2022/10/11 11:36:32;;;;;;;68.13;46.33;;;18.10;99.90;;;;;;6312907;22;20087;-80
2022/10/11 11:39:01;;;;;;;72.65;47.72;;;18.10;99.90;;;;;;6340272;22;19991;-81
2022/10/11 11:41:52;;;;;;;65.07;44.28;;;18.20;99.90;;;;;;6340301;22;20007;-80
2022/10/11 11:44:28;;;;;;;66.33;44.27;;;18.20;99.90;;;;;;6340589;22;20391;-80
2022/10/11 11:47:17;;;;;;;64.88;43.75;;;18.20;99.90;;;;;;6313036;22;20219;-81
2022/10/11 11:49:54;;;;;;;68.50;46.80;;;18.30;99.90;;;;;;6340733;22;20022;-82
2022/10/11 11:52:27;;;;;;;70.97;48.28;;;18.40;99.90;;;;;;6340105;22;20047;-80
2022/10/11 11:55:11;;;;;;;77.93;50.17;;;18.50;99.90;;;;;;6339968;22;20475;-81
2022/10/11 11:57:49;;;;;;;94.07;53.22;;;18.60;99.90;;;;;;6340857;22;20019;-81
2022/10/11 12:00:19;;;;;;;92.30;54.47;;;18.60;99.90;;;;;;6312556;22;20002;-81
2022/10/11 12:02:53;;;;;;;84.78;53.40;;;18.60;99.90;;;;;;6312463;22;20277;-80
2022/10/11 12:05:23;;;;;;;96.55;59.72;;;18.70;99.90;;;;;;6340455;22;20075;-81
2022/10/11 12:07:49;;;;;;;90.30;54.75;;;18.60;99.90;;;;;;6312929;22;20010;-82
2022/10/11 12:10:27;;;;;;;100.68;56.45;;;18.60;99.90;;;;;;6340123;22;19995;-80
2022/10/11 12:13:11;;;;;;;98.85;54.55;;;18.50;99.90;;;;;;6340211;22;20062;-80
2022/10/11 12:15:37;;;;;;;98.53;57.58;;;18.40;99.90;;;;;;6312463;22;20494;-79
2022/10/11 12:18:16;;;;;;;94.75;57.90;;;18.40;99.90;;;;;;6339876;22;19987;-79
2022/10/11 12:20:43;;;;;;;103.60;61.15;;;18.50;99.90;;;;;;6340112;22;20003;-81
2022/10/11 12:23:30;;;;;;;98.55;61.83;;;18.60;99.90;;;;;;6312836;22;20085;-80
2022/10/11 12:26:29;;;;;;;111.85;62.42;;;18.70;99.90;;;;;;6339648;22;20096;-80
2022/10/11 12:29:16;;;;;;;96.13;58.88;;;18.70;99.90;;;;;;6340031;22;19987;-81
2022/10/11 12:31:43;;;;;;;93.07;57.20;;;18.90;99.90;;;;;;6340033;22;20327;-79
2022/10/11 12:34:08;;;;;;;94.57;60.22;;;19.10;99.90;;;;;;6312125;22;19994;-81
2022/10/11 12:36:41;;;;;;;97.57;60.85;;;19.20;99.90;;;;;;6312230;22;20022;-79
2022/10/11 12:39:19;;;;;;;94.18;57.28;;;19.30;99.90;;;;;;6312667;22;20081;-80
2022/10/11 12:41:52;;;;;;;97.82;59.03;;;19.40;99.90;;;;;;6312227;22;20007;-78
2022/10/11 12:44:18;;;;;;;95.22;60.28;;;19.60;99.90;;;;;;6339790;22;20048;-79
2022/10/11 12:46:49;;;;;;;90.88;59.20;;;19.80;99.90;;;;;;6340090;22;20057;-78